• Join FlightAware (Why Join?)
  • Login
  • US Flag 
01:09PM EDT


 

Airport Tracker/Info


-or-


 

Live Flight TrackerFlight Track Log ✈ N173AA ✈ 12-May-2013 ✈ KPGV - KFLL

Flight Track Log - Related Links

Times and Time Zones

All times are in EDT time to prevent confusion due to time zone crossing. See the N173AA flight status page for this flight to view local times or setup timezone preferences in your user account.

Time Position Orientation Groundspeed Altitude Reporting Facility
EDT Latitude Longitude Course Direction KTS MPH feet Rate Location/Type
02:26PM 35.6303 -77.4628 202° Southwest 347 399 6,600  Level Washington Center
02:27PM 35.5919 -77.5028 220° Southwest 250 288 8,500 1,860 Climbing Washington Center
02:28PM 35.5497 -77.5475 221° Southwest 218 251 10,300 1,860 Climbing Washington Center
02:29PM 35.5072 -77.5900 219° Southwest 211 243 12,200 1,680 Climbing Washington Center
02:31PM 35.2337 -77.7759 223° Southwest  Level FlightAware Approximate
02:31PM 35.4158 -77.6819 219° Southwest 351 404 15,400  Level Washington Center
02:32PM 35.1669 -77.8415 202° Southwest  Level FlightAware Approximate
02:32PM 35.3714 -77.7292 221° Southwest 275 316 16,700  Level Washington Center
02:33PM 35.3225 -77.7736 217° Southwest 253 291 17,900 1,260 Climbing Washington Center
02:34PM 35.2714 -77.8231 218° Southwest 238 274 19,300 1,320 Climbing Washington Center
02:35PM 35.2206 -77.8725 218° Southwest 238 274 20,600 1,260 Climbing Washington Center
02:36PM 35.1694 -77.9219 218° Southwest 233 268 21,900 1,260 Climbing Washington Center
02:37PM 35.1183 -77.9686 217° Southwest 233 268 23,100 1,260 Climbing Washington Center
02:38PM 35.0714 -78.0206 222° Southwest 233 268 24,400 1,260 Climbing Washington Center
02:39PM 35.0225 -78.0700 220° Southwest 238 274 25,700 1,200 Climbing Washington Center
02:41PM 34.9222 -78.1633 217° Southwest 223 257 28,100 1,080 Climbing Jacksonville Center
02:42PM 34.8694 -78.2042 212° Southwest 223 257 29,100 900 Climbing Jacksonville Center
02:43PM 34.8189 -78.2500 217° Southwest 218 251 30,000 420 Climbing Jacksonville Center
02:44PM 34.7644 -78.2958 215° Southwest 228 262 30,000  Level Jacksonville Center
02:45PM 34.7042 -78.3572 220° Southwest 253 291 30,000  Level Jacksonville Center
02:46PM 34.6456 -78.4158 219° Southwest 264 304 30,000  Level Jacksonville Center
02:47PM 34.5911 -78.4639 216° Southwest 269 310 30,000  Level Jacksonville Center
02:48PM 34.5347 -78.5247 222° Southwest 275 316 30,000  Level Jacksonville Center
02:49PM 34.4703 -78.5911 220° Southwest 275 316 30,000 -60 Level Jacksonville Center
02:50PM 34.4097 -78.6494 218° Southwest 275 316 29,900  Descending Jacksonville Center
02:51PM 34.3492 -78.7078 219° Southwest 275 316 30,000  Climbing Jacksonville Center
02:52PM 34.2883 -78.7608 216° Southwest 275 316 30,000  Level Jacksonville Center
02:53PM 34.2253 -78.8167 216° Southwest 275 316 30,000 360 Level Jacksonville Center
02:54PM 34.1667 -78.8694 217° Southwest 275 316 30,800 480 Climbing Jacksonville Center
02:55PM 34.1097 -78.9222 218° Southwest 275 316 31,000 60 Climbing Jacksonville Center
02:56PM 34.0511 -78.9750 217° Southwest 269 310 31,000  Level Jacksonville Center
02:57PM 33.9942 -79.0278 218° Southwest 269 310 31,000  Level Jacksonville Center
02:58PM 33.9356 -79.0856 219° Southwest 269 310 31,000  Level Jacksonville Center
02:59PM 33.8786 -79.1406 219° Southwest 269 310 31,000  Level Jacksonville Center
03:00PM 33.8219 -79.1953 219° Southwest 269 310 31,000  Level Jacksonville Center
03:01PM 33.7608 -79.2503 217° Southwest 269 310 31,000  Level Jacksonville Center
03:02PM 33.7039 -79.3000 216° Southwest 269 310 31,000  Level Jacksonville Center
03:03PM 33.6469 -79.3525 218° Southwest 264 304 31,000  Level Jacksonville Center
03:04PM 33.5881 -79.4097 219° Southwest 269 310 31,000  Level Jacksonville Center
03:05PM 33.5311 -79.4642 219° Southwest 269 310 31,000  Level Jacksonville Center
03:06PM 33.4719 -79.5186 218° Southwest 269 310 31,000  Level Jacksonville Center
03:07PM 33.4108 -79.5758 218° Southwest 269 310 31,000  Level Jacksonville Center
03:08PM 33.3517 -79.6278 216° Southwest 269 310 31,000 -240 Level Jacksonville Center
03:09PM 33.2906 -79.6847 218° Southwest 269 310 30,600 -360 Descending Jacksonville Center
03:10PM 33.2294 -79.7364 215° Southwest 274 315 30,300 -300 Descending Jacksonville Center
03:11PM 33.1661 -79.7958 218° Southwest 279 321 30,000 -180 Descending Jacksonville Center
03:12PM 33.1047 -79.8500 216° Southwest 285 328 30,000  Level Jacksonville Center
03:13PM 33.0436 -79.9067 218° Southwest 285 328 30,000  Level Jacksonville Center
03:14PM 32.9800 -79.9581 214° Southwest 285 328 30,000  Level Jacksonville Center
03:15PM 32.9186 -80.0097 215° Southwest 285 328 30,100  Climbing Jacksonville Center
03:16PM 32.8592 -80.0611 216° Southwest 285 328 30,000 -60 Descending Jacksonville Center
03:17PM 32.7956 -80.1125 214° Southwest 280 322 30,000  Level Jacksonville Center
03:18PM 32.7300 -80.1589 211° Southwest 280 322 30,000  Level Jacksonville Center
03:19PM 32.6683 -80.2053 212° Southwest 274 315 30,000  Level Jacksonville Center
03:20PM 32.6025 -80.2539 212° Southwest 274 315 30,000  Level Jacksonville Center
03:21PM 32.5389 -80.3028 213° Southwest 274 315 30,100  Climbing Jacksonville Center
03:22PM 32.4731 -80.3514 212° Southwest 274 315 30,000 -60 Descending Jacksonville Center
03:23PM 32.4092 -80.3975 211° Southwest 274 315 30,000  Level Jacksonville Center
03:24PM 32.3433 -80.4433 210° Southwest 274 315 30,000  Level Jacksonville Center
03:25PM 32.2794 -80.4919 213° Southwest 274 315 30,000  Level Jacksonville Center
03:26PM 32.2136 -80.5403 212° Southwest 274 315 30,000  Level Jacksonville Center
03:27PM 32.1475 -80.5861 210° Southwest 274 315 30,000  Level Jacksonville Center
03:28PM 32.0839 -80.6342 213° Southwest 274 315 30,000  Level Jacksonville Center
03:29PM 32.0261 -80.6750 211° Southwest 274 315 30,000  Level Jacksonville Center
03:30PM 31.9581 -80.7281 213° Southwest 274 315 30,000  Level Jacksonville Center
03:31PM 31.8900 -80.7761 211° Southwest 274 315 30,000  Level Jacksonville Center
03:32PM 31.8344 -80.8189 213° Southwest 274 315 30,100  Climbing Jacksonville Center
03:33PM 31.7622 -80.8719 212° Southwest 274 315 30,000 -60 Descending Jacksonville Center
03:34PM 31.7044 -80.9144 212° Southwest 274 315 30,000  Level Jacksonville Center
03:35PM 31.6300 -80.9625 209° Southwest 280 322 30,000  Level Jacksonville Center
03:36PM 31.5617 -81.0103 211° Southwest 280 322 30,000  Level Jacksonville Center
03:37PM 31.5039 -81.0528 212° Southwest 280 322 30,000  Level Jacksonville Center
03:38PM 31.4294 -81.1056 211° Southwest 280 322 30,000  Level Jacksonville Center
03:39PM 31.3633 -81.1531 212° Southwest 280 322 30,000  Level Jacksonville Center
03:40PM 31.2714 -81.1547 181° South 315 362 30,100  Climbing Jacksonville Center
03:41PM 31.1839 -81.1636 185° South 322 371 30,100 -60 Level Jacksonville Center
03:42PM 31.0919 -81.1603 178° South 327 376 30,000 -60 Descending Jacksonville Center
03:43PM 30.9956 -81.1403 170° South 341 392 30,000  Level Jacksonville Center
03:44PM 30.9036 -81.1325 176° South 341 392 30,000  Level Jacksonville Center
03:45PM 30.8097 -81.1317 180° South 341 392 30,000  Level Jacksonville Center
03:46PM 30.7200 -81.1333 181° South 335 386 30,000  Level Jacksonville Center
03:47PM 30.6261 -81.1350 181° South 335 386 30,000  Level Jacksonville Center
03:48PM 30.5342 -81.1247 175° South 335 386 30,100  Climbing Jacksonville Center
03:49PM 30.4375 -81.0808 159° South 342 394 30,000 -60 Descending Jacksonville Center
03:50PM 30.3556 -81.0533 164° South 350 403 30,000  Level Jacksonville Center
03:51PM 30.2611 -81.0167 161° South 355 409 30,000  Level Jacksonville Center
03:52PM 30.1667 -80.9825 163° South 355 409 30,000  Level Jacksonville Center
03:53PM 30.0722 -80.9483 163° South 355 409 30,000  Level Jacksonville Center
03:54PM 29.9778 -80.9144 163° South 355 409 30,000  Level Jacksonville Center
03:55PM 29.8853 -80.8778 161° South 360 414 30,000  Level Jacksonville Center
03:56PM 29.7886 -80.8417 162° South 360 414 30,100  Climbing Jacksonville Center
03:59PM 29.5167 -80.7378 162° South 376 433 30,100 -60 Level Miami Center
04:00PM 29.4194 -80.7081 165° South 371 427 30,000 -60 Descending Miami Center
04:01PM 29.3225 -80.6689 161° South 371 427 30,000  Level Miami Center
04:02PM 29.2233 -80.6322 162° South 371 427 30,000  Level Miami Center
04:03PM 29.1242 -80.5956 162° South 376 433 30,100  Climbing Miami Center
04:04PM 29.0250 -80.5589 162° South 376 433 30,000 -420 Descending Miami Center
04:05PM 28.9278 -80.5225 162° South 376 433 29,300 -840 Descending Miami Center
04:06PM 28.8369 -80.4889 162° South 360 414 28,400 -1,020 Descending Miami Center
04:07PM 28.7458 -80.4550 162° South 353 406 27,300 -1,140 Descending Miami Center
04:08PM 28.6547 -80.4283 166° South 353 406 26,200 -1,140 Descending Miami Center
04:09PM 28.5853 -80.3719 145° Southeast 338 389 25,100 -1,140 Descending Miami Center
04:10PM 28.5161 -80.2964 136° Southeast 343 395 24,000 -600 Descending Miami Center
04:11PM 28.4411 -80.2114 135° Southeast 343 395 24,000  Level Miami Center
04:12PM 28.3739 -80.1317 134° Southeast 343 395 24,000  Level Miami Center
04:13PM 28.3069 -80.0519 134° Southeast 343 395 24,000  Level Miami Center
04:14PM 28.2650 -79.9633 118° Southeast 348 400 24,000  Level Miami Center
04:15PM 28.2319 -79.8422 107° East 348 400 24,000  Level Miami Center
04:16PM 28.2069 -79.7381 105° East 353 406 24,000  Level Miami Center
04:17PM 28.1736 -79.6406 111° Southeast 343 395 24,000  Level Miami Center
04:18PM 28.1144 -79.5567 129° Southeast 331 381 24,000  Level Miami Center
04:19PM 28.0533 -79.4753 130° Southeast 330 380 24,000  Level Miami Center
04:20PM 27.9858 -79.4078 139° Southeast 336 387 24,000  Level Miami Center
04:21PM 27.9097 -79.3450 144° Southeast 336 387 24,000 -360 Level Miami Center
04:22PM 27.8314 -79.2869 147° Southeast 341 392 23,300 -840 Descending Miami Center
04:23PM 27.7481 -79.2664 168° South 336 387 22,400 -900 Descending Miami Center
04:24PM 27.6581 -79.2811 188° South 330 380 21,600 -900 Descending Miami Center
04:25PM 27.5678 -79.3189 200° South 319 367 20,700 -900 Descending Miami Center
04:26PM 27.4836 -79.3500 198° South 332 382 19,800 -1,020 Descending Miami Center
04:27PM 27.4014 -79.3881 202° Southwest 332 382 18,700 -900 Descending Miami Center
04:28PM 27.3256 -79.4261 204° Southwest 330 380 18,000 -360 Descending Miami Center
04:29PM 27.2475 -79.4733 208° Southwest 330 380 18,000  Level Miami Center
04:30PM 27.1567 -79.5272 208° Southwest 330 380 18,000  Level Miami Center
04:31PM 27.0744 -79.5697 205° Southwest 330 380 18,000 -480 Level Miami Center
04:32PM 26.9861 -79.6072 201° Southwest 324 373 17,100 -1,260 Descending Miami Center
04:33PM 26.9061 -79.6381 199° South 339 390 15,500 -1,620 Descending Miami Center
04:34PM 26.8200 -79.6708 199° South 339 390 13,900 -1,320 Descending Miami Center
04:35PM 26.7358 -79.7014 198° South 326 375 12,900 -1,620 Descending Miami Center
04:36PM 26.6472 -79.7364 199° South 316 364 10,700 -1,740 Descending Miami Center
04:37PM 26.5694 -79.7717 202° Southwest 321 369 9,500 -960 Descending Miami Center
04:38PM 26.4850 -79.8114 203° Southwest 314 361 8,800 -720 Descending Miami Center
04:39PM 26.4111 -79.8514 206° Southwest 288 331 8,100 -360 Descending Miami Center
04:40PM 26.3433 -79.8961 211° Southwest 292 336 8,100 -360 Level Miami Center
04:41PM 26.3042 -79.9714 240° Southwest 292 336 7,400 -900 Descending Miami Center
04:42PM 26.2794 -80.0542 252° West 294 338 6,400 -960 Descending Miami Center
04:43PM 26.2714 -80.1306 263° West 289 333 5,500 -960 Descending Miami Center
04:44PM 26.2525 -80.2228 257° West 243 280 4,500 -780 Descending Miami Center
04:45PM 26.2306 -80.2753 245° Southwest 242 278 4,100 -240 Descending Miami Center
04:46PM 26.1931 -80.3575 243° Southwest 239 275 4,100  Level Miami Center
04:47PM 26.1772 -80.4033 249° West 237 273 4,100  Level Miami Center
04:48PM 26.1528 -80.4675 247° West 197 227 4,100  Level Miami Center
04:49PM 26.0919 -80.4747 186° South 199 229 4,100  Level Miami Center
04:50PM 26.0722 -80.4325 117° Southeast 216 249 4,100 -360 Level Miami Center
04:51PM 26.0758 -80.3656 87° East 218 251 3,500 -900 Descending Miami Center
04:52PM 26.0775 -80.3008 88° East 183 211 2,300 -1,020 Descending Miami Center
04:53PM 26.0744 -80.2522 94° East 158 182 1,500 -780 Descending Miami Center
04:54PM 26.0753 -80.2083 89° East 132 152 800 -720 Descending Miami Center